sensor_id;sensor_type;location;lat;lon;timestamp;P1;durP1;ratioP1;P2;durP2;ratioP2
16832;SDS011;8533;48.426;10.868;2024-01-30T00:00:29;13.23;;;7.97;;
16832;SDS011;8533;48.426;10.868;2024-01-30T00:02:54;14.27;;;8.03;;
16832;SDS011;8533;48.426;10.868;2024-01-30T00:05:19;15.40;;;8.37;;
16832;SDS011;8533;48.426;10.868;2024-01-30T00:07:45;17.80;;;9.27;;
16832;SDS011;8533;48.426;10.868;2024-01-30T00:10:10;16.87;;;8.27;;
16832;SDS011;8533;48.426;10.868;2024-01-30T00:12:35;14.50;;;7.97;;
16832;SDS011;8533;48.426;10.868;2024-01-30T00:15:00;14.23;;;7.57;;
16832;SDS011;8533;48.426;10.868;2024-01-30T00:17:26;16.30;;;7.67;;
16832;SDS011;8533;48.426;10.868;2024-01-30T00:19:51;16.73;;;8.30;;
16832;SDS011;8533;48.426;10.868;2024-01-30T00:22:17;15.63;;;8.20;;
16832;SDS011;8533;48.426;10.868;2024-01-30T00:24:42;17.30;;;7.80;;
16832;SDS011;8533;48.426;10.868;2024-01-30T00:27:08;16.87;;;8.57;;
16832;SDS011;8533;48.426;10.868;2024-01-30T00:29:33;16.63;;;8.80;;
16832;SDS011;8533;48.426;10.868;2024-01-30T00:31:59;17.10;;;9.03;;
16832;SDS011;8533;48.426;10.868;2024-01-30T00:34:25;16.73;;;8.43;;
16832;SDS011;8533;48.426;10.868;2024-01-30T00:36:50;19.37;;;8.73;;
16832;SDS011;8533;48.426;10.868;2024-01-30T00:39:15;18.90;;;9.00;;
16832;SDS011;8533;48.426;10.868;2024-01-30T00:41:41;22.17;;;10.03;;
16832;SDS011;8533;48.426;10.868;2024-01-30T00:44:06;18.20;;;10.00;;
16832;SDS011;8533;48.426;10.868;2024-01-30T00:46:32;21.07;;;10.17;;
16832;SDS011;8533;48.426;10.868;2024-01-30T00:48:57;20.43;;;10.80;;
16832;SDS011;8533;48.426;10.868;2024-01-30T00:51:23;20.80;;;10.20;;
16832;SDS011;8533;48.426;10.868;2024-01-30T00:53:48;18.53;;;10.10;;
16832;SDS011;8533;48.426;10.868;2024-01-30T00:56:13;17.53;;;10.20;;
16832;SDS011;8533;48.426;10.868;2024-01-30T00:58:39;15.23;;;9.80;;
16832;SDS011;8533;48.426;10.868;2024-01-30T01:01:04;20.30;;;10.93;;
16832;SDS011;8533;48.426;10.868;2024-01-30T01:03:29;23.30;;;11.70;;
16832;SDS011;8533;48.426;10.868;2024-01-30T01:05:55;22.97;;;11.03;;
16832;SDS011;8533;48.426;10.868;2024-01-30T01:08:20;23.30;;;12.30;;
16832;SDS011;8533;48.426;10.868;2024-01-30T01:10:45;17.33;;;10.20;;
16832;SDS011;8533;48.426;10.868;2024-01-30T01:13:11;22.43;;;10.90;;
16832;SDS011;8533;48.426;10.868;2024-01-30T01:15:36;20.23;;;10.90;;
16832;SDS011;8533;48.426;10.868;2024-01-30T01:18:02;25.10;;;11.47;;
16832;SDS011;8533;48.426;10.868;2024-01-30T01:20:27;22.87;;;11.63;;
16832;SDS011;8533;48.426;10.868;2024-01-30T01:22:53;18.80;;;10.43;;
16832;SDS011;8533;48.426;10.868;2024-01-30T01:25:18;17.20;;;9.83;;
16832;SDS011;8533;48.426;10.868;2024-01-30T01:27:43;22.83;;;10.63;;
16832;SDS011;8533;48.426;10.868;2024-01-30T01:30:16;20.03;;;11.27;;
16832;SDS011;8533;48.426;10.868;2024-01-30T01:32:46;23.53;;;12.03;;
16832;SDS011;8533;48.426;10.868;2024-01-30T01:35:15;22.03;;;11.00;;
16832;SDS011;8533;48.426;10.868;2024-01-30T01:37:41;20.60;;;10.13;;
16832;SDS011;8533;48.426;10.868;2024-01-30T01:40:07;18.90;;;10.50;;
16832;SDS011;8533;48.426;10.868;2024-01-30T01:42:32;22.77;;;11.13;;
16832;SDS011;8533;48.426;10.868;2024-01-30T01:44:58;19.00;;;10.53;;
16832;SDS011;8533;48.426;10.868;2024-01-30T01:47:23;17.00;;;9.93;;
16832;SDS011;8533;48.426;10.868;2024-01-30T01:49:49;17.40;;;10.93;;
16832;SDS011;8533;48.426;10.868;2024-01-30T01:52:14;21.53;;;10.37;;
16832;SDS011;8533;48.426;10.868;2024-01-30T01:54:40;25.03;;;10.13;;
16832;SDS011;8533;48.426;10.868;2024-01-30T01:57:06;20.37;;;10.23;;
16832;SDS011;8533;48.426;10.868;2024-01-30T01:59:31;20.07;;;9.13;;
16832;SDS011;8533;48.426;10.868;2024-01-30T02:01:57;19.43;;;9.90;;
16832;SDS011;8533;48.426;10.868;2024-01-30T02:04:22;16.37;;;9.07;;
16832;SDS011;8533;48.426;10.868;2024-01-30T02:06:48;22.30;;;10.93;;
16832;SDS011;8533;48.426;10.868;2024-01-30T02:09:13;17.53;;;9.40;;
16832;SDS011;8533;48.426;10.868;2024-01-30T02:11:38;18.93;;;9.50;;
16832;SDS011;8533;48.426;10.868;2024-01-30T02:14:05;17.60;;;9.47;;
16832;SDS011;8533;48.426;10.868;2024-01-30T02:16:31;17.67;;;9.43;;
16832;SDS011;8533;48.426;10.868;2024-01-30T02:18:57;19.23;;;8.63;;
16832;SDS011;8533;48.426;10.868;2024-01-30T02:21:22;16.10;;;8.90;;
16832;SDS011;8533;48.426;10.868;2024-01-30T02:23:47;17.03;;;8.43;;
16832;SDS011;8533;48.426;10.868;2024-01-30T02:26:14;14.97;;;7.73;;
16832;SDS011;8533;48.426;10.868;2024-01-30T02:28:39;16.13;;;8.40;;
16832;SDS011;8533;48.426;10.868;2024-01-30T02:31:05;20.17;;;8.30;;
16832;SDS011;8533;48.426;10.868;2024-01-30T02:33:30;14.97;;;8.73;;
16832;SDS011;8533;48.426;10.868;2024-01-30T02:35:56;15.63;;;8.43;;
16832;SDS011;8533;48.426;10.868;2024-01-30T02:38:21;16.13;;;8.20;;
16832;SDS011;8533;48.426;10.868;2024-01-30T02:40:46;15.13;;;8.33;;
16832;SDS011;8533;48.426;10.868;2024-01-30T02:43:12;18.90;;;8.33;;
16832;SDS011;8533;48.426;10.868;2024-01-30T02:45:37;15.37;;;7.53;;
16832;SDS011;8533;48.426;10.868;2024-01-30T02:48:02;12.53;;;7.30;;
16832;SDS011;8533;48.426;10.868;2024-01-30T02:50:28;13.07;;;6.73;;
16832;SDS011;8533;48.426;10.868;2024-01-30T02:52:53;12.67;;;6.93;;
16832;SDS011;8533;48.426;10.868;2024-01-30T02:55:18;12.33;;;6.63;;
16832;SDS011;8533;48.426;10.868;2024-01-30T02:57:44;10.67;;;6.40;;
16832;SDS011;8533;48.426;10.868;2024-01-30T03:00:09;11.00;;;7.30;;
16832;SDS011;8533;48.426;10.868;2024-01-30T03:02:35;13.73;;;7.30;;
16832;SDS011;8533;48.426;10.868;2024-01-30T03:05:01;13.70;;;7.37;;
16832;SDS011;8533;48.426;10.868;2024-01-30T03:07:28;11.70;;;6.87;;
16832;SDS011;8533;48.426;10.868;2024-01-30T03:09:54;14.57;;;7.50;;
16832;SDS011;8533;48.426;10.868;2024-01-30T03:12:20;12.67;;;6.60;;
16832;SDS011;8533;48.426;10.868;2024-01-30T03:14:46;10.63;;;6.57;;
16832;SDS011;8533;48.426;10.868;2024-01-30T03:17:11;11.10;;;6.50;;
16832;SDS011;8533;48.426;10.868;2024-01-30T03:19:36;11.57;;;7.30;;
16832;SDS011;8533;48.426;10.868;2024-01-30T03:22:01;11.30;;;7.23;;
16832;SDS011;8533;48.426;10.868;2024-01-30T03:24:27;11.03;;;7.37;;
16832;SDS011;8533;48.426;10.868;2024-01-30T03:26:52;11.77;;;7.23;;
16832;SDS011;8533;48.426;10.868;2024-01-30T03:29:18;13.10;;;5.90;;
16832;SDS011;8533;48.426;10.868;2024-01-30T03:31:43;9.67;;;6.50;;
16832;SDS011;8533;48.426;10.868;2024-01-30T03:34:09;8.93;;;5.90;;
16832;SDS011;8533;48.426;10.868;2024-01-30T03:36:34;12.43;;;5.47;;
16832;SDS011;8533;48.426;10.868;2024-01-30T03:38:59;17.97;;;6.90;;
16832;SDS011;8533;48.426;10.868;2024-01-30T03:41:25;10.53;;;6.20;;
16832;SDS011;8533;48.426;10.868;2024-01-30T03:43:51;15.70;;;6.30;;
16832;SDS011;8533;48.426;10.868;2024-01-30T03:46:16;11.23;;;6.20;;
16832;SDS011;8533;48.426;10.868;2024-01-30T03:48:42;11.17;;;6.60;;
16832;SDS011;8533;48.426;10.868;2024-01-30T03:51:07;10.87;;;5.80;;
16832;SDS011;8533;48.426;10.868;2024-01-30T03:53:33;10.97;;;5.90;;
16832;SDS011;8533;48.426;10.868;2024-01-30T03:55:58;12.80;;;5.77;;
16832;SDS011;8533;48.426;10.868;2024-01-30T03:58:23;10.43;;;6.37;;
16832;SDS011;8533;48.426;10.868;2024-01-30T04:00:48;13.10;;;6.27;;
16832;SDS011;8533;48.426;10.868;2024-01-30T04:03:14;12.03;;;6.27;;
16832;SDS011;8533;48.426;10.868;2024-01-30T04:05:40;10.33;;;5.90;;
16832;SDS011;8533;48.426;10.868;2024-01-30T04:08:06;11.37;;;6.23;;
16832;SDS011;8533;48.426;10.868;2024-01-30T04:10:32;10.33;;;5.60;;
16832;SDS011;8533;48.426;10.868;2024-01-30T04:12:57;14.63;;;6.77;;
16832;SDS011;8533;48.426;10.868;2024-01-30T04:15:22;8.63;;;5.67;;
16832;SDS011;8533;48.426;10.868;2024-01-30T04:17:47;10.27;;;5.77;;
16832;SDS011;8533;48.426;10.868;2024-01-30T04:20:13;11.73;;;6.00;;
16832;SDS011;8533;48.426;10.868;2024-01-30T04:22:45;9.63;;;5.83;;
16832;SDS011;8533;48.426;10.868;2024-01-30T04:25:14;10.97;;;5.70;;
16832;SDS011;8533;48.426;10.868;2024-01-30T04:27:39;10.67;;;5.97;;
16832;SDS011;8533;48.426;10.868;2024-01-30T04:30:05;10.77;;;5.57;;
16832;SDS011;8533;48.426;10.868;2024-01-30T04:32:31;13.37;;;6.23;;
16832;SDS011;8533;48.426;10.868;2024-01-30T04:34:57;7.53;;;5.17;;
16832;SDS011;8533;48.426;10.868;2024-01-30T04:37:22;11.37;;;6.30;;
16832;SDS011;8533;48.426;10.868;2024-01-30T04:39:48;12.37;;;6.87;;
16832;SDS011;8533;48.426;10.868;2024-01-30T04:42:13;12.13;;;5.87;;
16832;SDS011;8533;48.426;10.868;2024-01-30T04:44:38;9.73;;;6.13;;
16832;SDS011;8533;48.426;10.868;2024-01-30T04:47:03;12.30;;;6.13;;
16832;SDS011;8533;48.426;10.868;2024-01-30T04:49:31;8.60;;;5.60;;
16832;SDS011;8533;48.426;10.868;2024-01-30T04:51:56;12.50;;;6.17;;
16832;SDS011;8533;48.426;10.868;2024-01-30T04:54:21;14.07;;;6.47;;
16832;SDS011;8533;48.426;10.868;2024-01-30T04:56:47;11.30;;;6.00;;
16832;SDS011;8533;48.426;10.868;2024-01-30T04:59:12;10.83;;;6.00;;
16832;SDS011;8533;48.426;10.868;2024-01-30T05:01:37;8.40;;;5.63;;
16832;SDS011;8533;48.426;10.868;2024-01-30T05:04:03;9.73;;;6.07;;
16832;SDS011;8533;48.426;10.868;2024-01-30T05:06:28;9.30;;;5.50;;
16832;SDS011;8533;48.426;10.868;2024-01-30T05:08:54;11.00;;;5.83;;
16832;SDS011;8533;48.426;10.868;2024-01-30T05:11:19;8.17;;;5.10;;
16832;SDS011;8533;48.426;10.868;2024-01-30T05:13:44;11.40;;;6.37;;
16832;SDS011;8533;48.426;10.868;2024-01-30T05:16:10;11.67;;;6.53;;
16832;SDS011;8533;48.426;10.868;2024-01-30T05:18:35;10.50;;;5.70;;
16832;SDS011;8533;48.426;10.868;2024-01-30T05:21:01;8.70;;;5.90;;
16832;SDS011;8533;48.426;10.868;2024-01-30T05:23:27;12.23;;;6.53;;
16832;SDS011;8533;48.426;10.868;2024-01-30T05:25:52;8.43;;;5.47;;
16832;SDS011;8533;48.426;10.868;2024-01-30T05:28:18;10.57;;;5.67;;
16832;SDS011;8533;48.426;10.868;2024-01-30T05:30:43;11.33;;;5.80;;
16832;SDS011;8533;48.426;10.868;2024-01-30T05:33:08;11.97;;;5.90;;
16832;SDS011;8533;48.426;10.868;2024-01-30T05:35:34;12.77;;;6.23;;
16832;SDS011;8533;48.426;10.868;2024-01-30T05:37:59;11.93;;;5.97;;
16832;SDS011;8533;48.426;10.868;2024-01-30T05:40:25;8.57;;;4.93;;
16832;SDS011;8533;48.426;10.868;2024-01-30T05:42:50;11.10;;;6.17;;
16832;SDS011;8533;48.426;10.868;2024-01-30T05:45:15;12.67;;;5.87;;
16832;SDS011;8533;48.426;10.868;2024-01-30T05:47:40;10.60;;;6.03;;
16832;SDS011;8533;48.426;10.868;2024-01-30T05:50:06;7.37;;;5.43;;
16832;SDS011;8533;48.426;10.868;2024-01-30T05:52:32;12.10;;;5.83;;
16832;SDS011;8533;48.426;10.868;2024-01-30T05:54:57;9.53;;;6.07;;
16832;SDS011;8533;48.426;10.868;2024-01-30T05:57:22;10.37;;;5.87;;
16832;SDS011;8533;48.426;10.868;2024-01-30T05:59:47;10.30;;;6.43;;
16832;SDS011;8533;48.426;10.868;2024-01-30T06:02:13;11.53;;;6.93;;
16832;SDS011;8533;48.426;10.868;2024-01-30T06:04:38;13.67;;;7.60;;
16832;SDS011;8533;48.426;10.868;2024-01-30T06:07:04;10.40;;;6.50;;
16832;SDS011;8533;48.426;10.868;2024-01-30T06:09:31;10.63;;;5.43;;
16832;SDS011;8533;48.426;10.868;2024-01-30T06:11:56;12.83;;;6.37;;
16832;SDS011;8533;48.426;10.868;2024-01-30T06:14:22;9.97;;;5.87;;
16832;SDS011;8533;48.426;10.868;2024-01-30T06:16:47;10.00;;;5.70;;
16832;SDS011;8533;48.426;10.868;2024-01-30T06:19:12;13.23;;;6.23;;
16832;SDS011;8533;48.426;10.868;2024-01-30T06:21:37;9.63;;;6.37;;
16832;SDS011;8533;48.426;10.868;2024-01-30T06:24:03;12.13;;;6.27;;
16832;SDS011;8533;48.426;10.868;2024-01-30T06:26:29;12.67;;;6.97;;
16832;SDS011;8533;48.426;10.868;2024-01-30T06:28:54;12.97;;;6.63;;
16832;SDS011;8533;48.426;10.868;2024-01-30T06:31:19;14.40;;;6.30;;
16832;SDS011;8533;48.426;10.868;2024-01-30T06:33:46;11.83;;;7.17;;
16832;SDS011;8533;48.426;10.868;2024-01-30T06:36:14;13.77;;;7.57;;
16832;SDS011;8533;48.426;10.868;2024-01-30T06:38:40;11.87;;;7.77;;
16832;SDS011;8533;48.426;10.868;2024-01-30T06:41:05;14.60;;;7.73;;
16832;SDS011;8533;48.426;10.868;2024-01-30T06:43:31;9.97;;;6.77;;
16832;SDS011;8533;48.426;10.868;2024-01-30T06:45:56;10.87;;;6.67;;
16832;SDS011;8533;48.426;10.868;2024-01-30T06:48:21;9.60;;;6.27;;
16832;SDS011;8533;48.426;10.868;2024-01-30T06:50:47;13.83;;;7.30;;
16832;SDS011;8533;48.426;10.868;2024-01-30T06:53:13;13.60;;;6.90;;
16832;SDS011;8533;48.426;10.868;2024-01-30T06:55:38;12.27;;;6.50;;
16832;SDS011;8533;48.426;10.868;2024-01-30T06:58:03;11.43;;;5.87;;
16832;SDS011;8533;48.426;10.868;2024-01-30T07:00:28;8.57;;;5.63;;
16832;SDS011;8533;48.426;10.868;2024-01-30T07:02:54;8.73;;;5.47;;
16832;SDS011;8533;48.426;10.868;2024-01-30T07:05:19;10.30;;;5.97;;
16832;SDS011;8533;48.426;10.868;2024-01-30T07:07:46;11.37;;;6.23;;
16832;SDS011;8533;48.426;10.868;2024-01-30T07:10:12;12.07;;;6.40;;
16832;SDS011;8533;48.426;10.868;2024-01-30T07:12:37;10.07;;;7.17;;
16832;SDS011;8533;48.426;10.868;2024-01-30T07:15:02;12.37;;;6.23;;
16832;SDS011;8533;48.426;10.868;2024-01-30T07:17:28;14.07;;;5.90;;
16832;SDS011;8533;48.426;10.868;2024-01-30T07:19:54;11.13;;;5.20;;
16832;SDS011;8533;48.426;10.868;2024-01-30T07:22:19;12.40;;;5.90;;
16832;SDS011;8533;48.426;10.868;2024-01-30T07:24:44;11.50;;;5.77;;
16832;SDS011;8533;48.426;10.868;2024-01-30T07:27:12;11.90;;;6.17;;
16832;SDS011;8533;48.426;10.868;2024-01-30T07:29:38;11.40;;;5.90;;
16832;SDS011;8533;48.426;10.868;2024-01-30T07:32:03;13.00;;;6.53;;
16832;SDS011;8533;48.426;10.868;2024-01-30T07:34:29;13.60;;;6.90;;
16832;SDS011;8533;48.426;10.868;2024-01-30T07:36:54;13.50;;;6.23;;
16832;SDS011;8533;48.426;10.868;2024-01-30T07:39:19;9.77;;;6.03;;
16832;SDS011;8533;48.426;10.868;2024-01-30T07:41:44;14.43;;;7.27;;
16832;SDS011;8533;48.426;10.868;2024-01-30T07:44:10;11.43;;;6.53;;
16832;SDS011;8533;48.426;10.868;2024-01-30T07:46:35;13.70;;;7.20;;
16832;SDS011;8533;48.426;10.868;2024-01-30T07:49:00;14.60;;;7.57;;
16832;SDS011;8533;48.426;10.868;2024-01-30T07:51:26;14.27;;;7.83;;
16832;SDS011;8533;48.426;10.868;2024-01-30T07:53:53;13.83;;;7.50;;
16832;SDS011;8533;48.426;10.868;2024-01-30T07:56:18;18.90;;;8.63;;
16832;SDS011;8533;48.426;10.868;2024-01-30T07:58:44;17.20;;;7.90;;
16832;SDS011;8533;48.426;10.868;2024-01-30T08:01:09;15.63;;;7.30;;
16832;SDS011;8533;48.426;10.868;2024-01-30T08:03:35;17.30;;;7.43;;
16832;SDS011;8533;48.426;10.868;2024-01-30T08:06:01;17.63;;;8.47;;
16832;SDS011;8533;48.426;10.868;2024-01-30T08:08:27;13.27;;;7.50;;
16832;SDS011;8533;48.426;10.868;2024-01-30T08:10:53;14.67;;;7.27;;
16832;SDS011;8533;48.426;10.868;2024-01-30T08:13:18;12.43;;;6.80;;
16832;SDS011;8533;48.426;10.868;2024-01-30T08:15:43;15.47;;;7.60;;
16832;SDS011;8533;48.426;10.868;2024-01-30T08:18:09;17.50;;;7.30;;
16832;SDS011;8533;48.426;10.868;2024-01-30T08:20:34;12.30;;;6.53;;
16832;SDS011;8533;48.426;10.868;2024-01-30T08:22:59;12.83;;;6.60;;
16832;SDS011;8533;48.426;10.868;2024-01-30T08:25:25;15.63;;;6.87;;
16832;SDS011;8533;48.426;10.868;2024-01-30T08:27:51;10.87;;;6.73;;
16832;SDS011;8533;48.426;10.868;2024-01-30T08:30:16;11.37;;;6.23;;
16832;SDS011;8533;48.426;10.868;2024-01-30T08:32:41;12.90;;;6.87;;
16832;SDS011;8533;48.426;10.868;2024-01-30T08:35:07;11.07;;;6.70;;
16832;SDS011;8533;48.426;10.868;2024-01-30T08:37:33;16.27;;;7.50;;
16832;SDS011;8533;48.426;10.868;2024-01-30T08:39:58;15.73;;;7.27;;
16832;SDS011;8533;48.426;10.868;2024-01-30T08:42:24;12.67;;;7.17;;
16832;SDS011;8533;48.426;10.868;2024-01-30T08:44:50;8.53;;;5.60;;
16832;SDS011;8533;48.426;10.868;2024-01-30T08:47:17;11.80;;;7.03;;
16832;SDS011;8533;48.426;10.868;2024-01-30T08:49:43;10.97;;;6.83;;
16832;SDS011;8533;48.426;10.868;2024-01-30T08:52:09;11.17;;;6.20;;
16832;SDS011;8533;48.426;10.868;2024-01-30T08:54:35;12.27;;;6.33;;
16832;SDS011;8533;48.426;10.868;2024-01-30T08:57:00;9.63;;;6.03;;
16832;SDS011;8533;48.426;10.868;2024-01-30T08:59:26;12.80;;;6.47;;
16832;SDS011;8533;48.426;10.868;2024-01-30T09:01:51;8.37;;;5.00;;
16832;SDS011;8533;48.426;10.868;2024-01-30T09:04:19;11.87;;;5.67;;
16832;SDS011;8533;48.426;10.868;2024-01-30T09:06:44;8.10;;;5.17;;
16832;SDS011;8533;48.426;10.868;2024-01-30T09:09:10;7.73;;;4.93;;
16832;SDS011;8533;48.426;10.868;2024-01-30T09:11:35;11.23;;;5.30;;
16832;SDS011;8533;48.426;10.868;2024-01-30T09:14:01;34.70;;;14.77;;
16832;SDS011;8533;48.426;10.868;2024-01-30T09:16:26;15.83;;;9.20;;
16832;SDS011;8533;48.426;10.868;2024-01-30T09:18:51;16.07;;;7.57;;
16832;SDS011;8533;48.426;10.868;2024-01-30T09:21:16;12.93;;;6.77;;
16832;SDS011;8533;48.426;10.868;2024-01-30T09:23:42;9.53;;;5.97;;
16832;SDS011;8533;48.426;10.868;2024-01-30T09:26:07;11.17;;;5.53;;
16832;SDS011;8533;48.426;10.868;2024-01-30T09:28:32;12.00;;;5.67;;
16832;SDS011;8533;48.426;10.868;2024-01-30T09:30:58;12.53;;;5.30;;
16832;SDS011;8533;48.426;10.868;2024-01-30T09:33:23;14.90;;;5.90;;
16832;SDS011;8533;48.426;10.868;2024-01-30T09:35:48;9.77;;;5.83;;
16832;SDS011;8533;48.426;10.868;2024-01-30T09:38:14;12.87;;;6.10;;
16832;SDS011;8533;48.426;10.868;2024-01-30T09:40:39;9.17;;;6.03;;
16832;SDS011;8533;48.426;10.868;2024-01-30T09:43:04;9.77;;;5.37;;
16832;SDS011;8533;48.426;10.868;2024-01-30T09:45:30;13.67;;;5.43;;
16832;SDS011;8533;48.426;10.868;2024-01-30T09:47:58;8.70;;;4.70;;
16832;SDS011;8533;48.426;10.868;2024-01-30T09:50:24;11.77;;;4.50;;
16832;SDS011;8533;48.426;10.868;2024-01-30T09:52:49;7.00;;;4.73;;
16832;SDS011;8533;48.426;10.868;2024-01-30T09:55:16;8.57;;;4.33;;
16832;SDS011;8533;48.426;10.868;2024-01-30T09:57:42;10.37;;;4.50;;
16832;SDS011;8533;48.426;10.868;2024-01-30T10:00:07;13.57;;;5.23;;
16832;SDS011;8533;48.426;10.868;2024-01-30T10:02:34;14.13;;;4.93;;
16832;SDS011;8533;48.426;10.868;2024-01-30T10:05:00;13.63;;;4.43;;
16832;SDS011;8533;48.426;10.868;2024-01-30T10:07:25;11.73;;;4.90;;
16832;SDS011;8533;48.426;10.868;2024-01-30T10:09:52;10.67;;;4.83;;
16832;SDS011;8533;48.426;10.868;2024-01-30T10:12:18;11.10;;;5.27;;
16832;SDS011;8533;48.426;10.868;2024-01-30T10:14:43;12.83;;;5.23;;
16832;SDS011;8533;48.426;10.868;2024-01-30T10:17:09;9.20;;;4.90;;
16832;SDS011;8533;48.426;10.868;2024-01-30T10:19:35;12.73;;;4.70;;
16832;SDS011;8533;48.426;10.868;2024-01-30T10:22:01;6.37;;;4.20;;
16832;SDS011;8533;48.426;10.868;2024-01-30T10:24:26;12.67;;;5.10;;
16832;SDS011;8533;48.426;10.868;2024-01-30T10:26:53;8.30;;;4.60;;
16832;SDS011;8533;48.426;10.868;2024-01-30T10:29:18;7.60;;;4.50;;
16832;SDS011;8533;48.426;10.868;2024-01-30T10:31:44;8.93;;;4.50;;
16832;SDS011;8533;48.426;10.868;2024-01-30T10:34:09;9.57;;;5.03;;
16832;SDS011;8533;48.426;10.868;2024-01-30T10:36:36;8.30;;;4.70;;
16832;SDS011;8533;48.426;10.868;2024-01-30T10:39:06;8.77;;;4.87;;
16832;SDS011;8533;48.426;10.868;2024-01-30T10:41:32;10.40;;;5.60;;
16832;SDS011;8533;48.426;10.868;2024-01-30T10:44:21;10.73;;;5.13;;
16832;SDS011;8533;48.426;10.868;2024-01-30T10:46:50;11.73;;;4.33;;
16832;SDS011;8533;48.426;10.868;2024-01-30T10:49:20;9.73;;;4.60;;
16832;SDS011;8533;48.426;10.868;2024-01-30T10:51:46;9.30;;;5.30;;
16832;SDS011;8533;48.426;10.868;2024-01-30T10:54:13;7.57;;;4.57;;
16832;SDS011;8533;48.426;10.868;2024-01-30T10:56:40;9.20;;;5.30;;
16832;SDS011;8533;48.426;10.868;2024-01-30T10:59:07;7.47;;;5.07;;
16832;SDS011;8533;48.426;10.868;2024-01-30T11:01:34;8.53;;;4.90;;
16832;SDS011;8533;48.426;10.868;2024-01-30T11:04:00;11.47;;;5.13;;
16832;SDS011;8533;48.426;10.868;2024-01-30T11:06:26;12.50;;;6.03;;
16832;SDS011;8533;48.426;10.868;2024-01-30T11:09:01;10.47;;;5.03;;
16832;SDS011;8533;48.426;10.868;2024-01-30T11:11:47;10.07;;;4.70;;
16832;SDS011;8533;48.426;10.868;2024-01-30T11:14:31;9.73;;;5.03;;
16832;SDS011;8533;48.426;10.868;2024-01-30T11:16:57;12.90;;;4.83;;
16832;SDS011;8533;48.426;10.868;2024-01-30T11:19:24;8.43;;;4.50;;
16832;SDS011;8533;48.426;10.868;2024-01-30T11:21:50;7.53;;;4.53;;
16832;SDS011;8533;48.426;10.868;2024-01-30T11:24:22;7.80;;;4.77;;
16832;SDS011;8533;48.426;10.868;2024-01-30T11:26:57;13.13;;;4.83;;
16832;SDS011;8533;48.426;10.868;2024-01-30T11:29:28;10.30;;;4.90;;
16832;SDS011;8533;48.426;10.868;2024-01-30T11:31:54;8.40;;;4.70;;
16832;SDS011;8533;48.426;10.868;2024-01-30T11:34:21;13.33;;;5.03;;
16832;SDS011;8533;48.426;10.868;2024-01-30T11:36:56;7.70;;;4.57;;
16832;SDS011;8533;48.426;10.868;2024-01-30T11:39:25;9.90;;;4.57;;
16832;SDS011;8533;48.426;10.868;2024-01-30T11:41:54;7.33;;;4.70;;
16832;SDS011;8533;48.426;10.868;2024-01-30T11:44:19;8.80;;;4.63;;
16832;SDS011;8533;48.426;10.868;2024-01-30T11:46:46;8.33;;;4.87;;
16832;SDS011;8533;48.426;10.868;2024-01-30T11:49:13;10.73;;;5.90;;
16832;SDS011;8533;48.426;10.868;2024-01-30T11:51:38;14.37;;;6.80;;
16832;SDS011;8533;48.426;10.868;2024-01-30T11:54:04;15.80;;;6.80;;
16832;SDS011;8533;48.426;10.868;2024-01-30T11:56:29;17.83;;;8.40;;
16832;SDS011;8533;48.426;10.868;2024-01-30T11:58:54;20.37;;;8.07;;
16832;SDS011;8533;48.426;10.868;2024-01-30T12:01:20;15.77;;;8.03;;
16832;SDS011;8533;48.426;10.868;2024-01-30T12:03:51;22.43;;;8.50;;
16832;SDS011;8533;48.426;10.868;2024-01-30T12:06:17;11.10;;;7.07;;
16832;SDS011;8533;48.426;10.868;2024-01-30T12:08:42;13.20;;;7.23;;
16832;SDS011;8533;48.426;10.868;2024-01-30T12:11:07;16.17;;;6.77;;
16832;SDS011;8533;48.426;10.868;2024-01-30T12:13:33;18.73;;;6.30;;
16832;SDS011;8533;48.426;10.868;2024-01-30T12:15:59;11.30;;;6.37;;
16832;SDS011;8533;48.426;10.868;2024-01-30T12:18:25;13.83;;;6.80;;
16832;SDS011;8533;48.426;10.868;2024-01-30T12:20:57;11.20;;;6.77;;
16832;SDS011;8533;48.426;10.868;2024-01-30T12:23:24;12.63;;;6.73;;
16832;SDS011;8533;48.426;10.868;2024-01-30T12:25:51;11.73;;;6.83;;
16832;SDS011;8533;48.426;10.868;2024-01-30T12:28:16;10.90;;;6.43;;
16832;SDS011;8533;48.426;10.868;2024-01-30T12:30:42;15.17;;;7.60;;
16832;SDS011;8533;48.426;10.868;2024-01-30T12:33:07;13.70;;;6.80;;
16832;SDS011;8533;48.426;10.868;2024-01-30T12:35:34;9.43;;;6.20;;
16832;SDS011;8533;48.426;10.868;2024-01-30T12:38:00;14.50;;;6.50;;
16832;SDS011;8533;48.426;10.868;2024-01-30T12:40:25;15.97;;;6.47;;
16832;SDS011;8533;48.426;10.868;2024-01-30T12:42:51;11.10;;;7.10;;
16832;SDS011;8533;48.426;10.868;2024-01-30T12:45:17;19.33;;;6.87;;
16832;SDS011;8533;48.426;10.868;2024-01-30T12:47:47;13.60;;;7.20;;
16832;SDS011;8533;48.426;10.868;2024-01-30T12:50:12;10.37;;;6.33;;
16832;SDS011;8533;48.426;10.868;2024-01-30T12:52:40;15.03;;;5.77;;
16832;SDS011;8533;48.426;10.868;2024-01-30T12:55:06;11.13;;;6.87;;
16832;SDS011;8533;48.426;10.868;2024-01-30T12:57:31;14.77;;;7.47;;
16832;SDS011;8533;48.426;10.868;2024-01-30T12:59:57;11.83;;;6.77;;
16832;SDS011;8533;48.426;10.868;2024-01-30T13:02:22;14.80;;;4.63;;
16832;SDS011;8533;48.426;10.868;2024-01-30T13:04:48;9.47;;;5.63;;
16832;SDS011;8533;48.426;10.868;2024-01-30T13:07:13;8.53;;;4.87;;
16832;SDS011;8533;48.426;10.868;2024-01-30T13:09:39;13.97;;;6.00;;
16832;SDS011;8533;48.426;10.868;2024-01-30T13:12:04;7.60;;;4.93;;
16832;SDS011;8533;48.426;10.868;2024-01-30T13:14:29;13.17;;;6.90;;
16832;SDS011;8533;48.426;10.868;2024-01-30T13:16:55;13.23;;;6.30;;
16832;SDS011;8533;48.426;10.868;2024-01-30T13:19:20;11.43;;;7.03;;
16832;SDS011;8533;48.426;10.868;2024-01-30T13:21:45;9.83;;;6.03;;
16832;SDS011;8533;48.426;10.868;2024-01-30T13:24:11;9.70;;;6.20;;
16832;SDS011;8533;48.426;10.868;2024-01-30T13:26:36;13.17;;;6.23;;
16832;SDS011;8533;48.426;10.868;2024-01-30T13:29:02;10.23;;;6.07;;
16832;SDS011;8533;48.426;10.868;2024-01-30T13:31:28;8.17;;;5.53;;
16832;SDS011;8533;48.426;10.868;2024-01-30T13:33:54;7.90;;;4.70;;
16832;SDS011;8533;48.426;10.868;2024-01-30T13:36:20;6.87;;;4.17;;
16832;SDS011;8533;48.426;10.868;2024-01-30T13:38:46;6.60;;;3.93;;
16832;SDS011;8533;48.426;10.868;2024-01-30T13:41:11;8.43;;;4.30;;
16832;SDS011;8533;48.426;10.868;2024-01-30T13:43:37;9.87;;;4.87;;
16832;SDS011;8533;48.426;10.868;2024-01-30T13:46:02;7.47;;;3.77;;
16832;SDS011;8533;48.426;10.868;2024-01-30T13:48:28;11.27;;;4.70;;
16832;SDS011;8533;48.426;10.868;2024-01-30T13:50:54;11.17;;;4.27;;
16832;SDS011;8533;48.426;10.868;2024-01-30T13:53:20;12.97;;;4.43;;
16832;SDS011;8533;48.426;10.868;2024-01-30T13:55:46;8.37;;;4.80;;
16832;SDS011;8533;48.426;10.868;2024-01-30T13:58:12;11.53;;;4.90;;
16832;SDS011;8533;48.426;10.868;2024-01-30T14:00:37;12.87;;;5.00;;
16832;SDS011;8533;48.426;10.868;2024-01-30T14:03:03;9.90;;;4.87;;
16832;SDS011;8533;48.426;10.868;2024-01-30T14:05:28;10.63;;;5.10;;
16832;SDS011;8533;48.426;10.868;2024-01-30T14:07:54;9.67;;;5.43;;
16832;SDS011;8533;48.426;10.868;2024-01-30T14:10:19;12.10;;;6.63;;
16832;SDS011;8533;48.426;10.868;2024-01-30T14:12:45;7.90;;;4.70;;
16832;SDS011;8533;48.426;10.868;2024-01-30T14:15:13;10.80;;;4.93;;
16832;SDS011;8533;48.426;10.868;2024-01-30T14:17:39;7.30;;;4.63;;
16832;SDS011;8533;48.426;10.868;2024-01-30T14:20:05;6.10;;;4.10;;
16832;SDS011;8533;48.426;10.868;2024-01-30T14:22:31;7.33;;;4.27;;
16832;SDS011;8533;48.426;10.868;2024-01-30T14:24:58;11.67;;;4.30;;
16832;SDS011;8533;48.426;10.868;2024-01-30T14:27:24;11.67;;;4.60;;